Time;durP1;ratioP1;P1;durP2;ratioP2;P2;SDS_P1;SDS_P2;PMS_P1;PMS_P2;Temp;Humidity;BMP_temperature;BMP_pressure;BME280_temperature;BME280_humidity;BME280_pressure;Samples;Min_cycle;Max_cycle;Signal;HPM_P1;HPM_P2
2023/02/04 00:05:28;;;;;;;10.25;3.25;;;8.00;99.90;;;;;;20565739;28;20058;-42
2023/02/04 00:15:30;;;;;;;12.02;2.30;;;7.90;99.90;;;;;;20568822;28;20064;-42
2023/02/04 00:25:31;;;;;;;3.33;1.60;;;7.80;99.90;;;;;;20569691;28;20038;-42
2023/02/04 00:35:32;;;;;;;11.80;2.90;;;7.70;99.90;;;;;;20570899;28;20034;-42
2023/02/04 00:45:33;;;;;;;7.35;1.65;;;7.60;99.90;;;;;;20575486;28;20047;-42
2023/02/04 00:55:34;;;;;;;6.22;2.47;;;7.40;99.90;;;;;;20562953;28;20042;-42
2023/02/04 01:05:35;;;;;;;10.80;2.85;;;7.30;99.90;;;;;;20557254;28;20532;-42
2023/02/04 01:15:36;;;;;;;12.40;2.92;;;7.20;99.90;;;;;;20561775;28;20042;-42
2023/02/04 01:25:37;;;;;;;12.73;2.35;;;7.10;99.90;;;;;;20563236;28;20520;-42
2023/02/04 01:35:38;;;;;;;5.13;1.63;;;7.00;99.90;;;;;;20564543;28;20049;-42
2023/02/04 01:45:39;;;;;;;8.73;3.25;;;7.10;99.90;;;;;;20577185;28;20057;-42
2023/02/04 01:55:40;;;;;;;7.13;1.60;;;7.10;99.90;;;;;;20566500;28;20519;-42
2023/02/04 02:05:45;;;;;;;11.15;3.25;;;7.10;99.90;;;;;;20550265;28;21891;-42
2023/02/04 02:15:46;;;;;;;4.15;1.65;;;7.10;99.90;;;;;;20552847;28;20880;-42
2023/02/04 02:25:48;;;;;;;4.68;1.85;;;7.00;99.90;;;;;;20545643;28;20098;-42
2023/02/04 02:35:49;;;;;;;12.93;1.77;;;7.00;99.90;;;;;;20544750;28;20521;-42
2023/02/04 02:45:50;;;;;;;10.30;2.85;;;6.90;99.90;;;;;;20622270;28;20240;-42
2023/02/04 02:55:51;;;;;;;4.05;1.08;;;6.80;99.90;;;;;;20630340;28;20184;-42
2023/02/04 03:06:05;;;;;;;6.97;1.73;;;6.80;99.90;;;;;;20634130;28;20192;-42
2023/02/04 03:16:07;;;;;;;6.53;1.90;;;6.80;99.90;;;;;;20626462;28;20122;-42
2023/02/04 03:26:08;;;;;;;5.13;1.92;;;6.70;99.90;;;;;;20627068;28;20074;-42
2023/02/04 03:36:09;;;;;;;9.23;2.28;;;6.60;99.90;;;;;;20648329;28;20140;-42
2023/02/04 03:46:10;;;;;;;3.47;1.33;;;6.40;99.90;;;;;;20649697;28;20517;-42
2023/02/04 03:56:11;;;;;;;4.50;1.17;;;6.20;99.90;;;;;;20649334;28;20544;-42
2023/02/04 04:06:12;;;;;;;6.78;2.35;;;6.10;99.90;;;;;;20643408;28;20177;-42
2023/02/04 04:16:13;;;;;;;5.80;1.70;;;6.00;99.90;;;;;;20674353;28;20133;-42
2023/02/04 04:26:14;;;;;;;2.95;1.00;;;6.00;99.90;;;;;;20548456;28;20503;-42
2023/02/04 04:36:15;;;;;;;9.77;2.67;;;6.00;99.90;;;;;;20620118;28;20399;-42
2023/02/04 04:46:16;;;;;;;6.55;1.52;;;6.10;99.90;;;;;;20556790;28;20089;-42
2023/02/04 04:56:18;;;;;;;5.60;2.33;;;6.10;99.90;;;;;;20547160;28;21350;-42
2023/02/04 05:06:24;;;;;;;9.82;1.80;;;6.20;99.90;;;;;;20540636;28;20490;-43
2023/02/04 05:16:25;;;;;;;6.80;2.13;;;6.20;99.90;;;;;;20542347;28;20100;-42
2023/02/04 05:26:26;;;;;;;7.47;1.10;;;6.10;99.90;;;;;;20539443;28;20105;-42
2023/02/04 05:36:27;;;;;;;5.57;2.20;;;6.10;99.90;;;;;;20555892;28;20160;-42
2023/02/04 05:46:28;;;;;;;3.42;1.17;;;5.90;99.90;;;;;;20651917;28;20103;-42
2023/02/04 05:56:29;;;;;;;6.38;2.20;;;5.90;99.90;;;;;;20655925;28;20042;-42
2023/02/04 06:06:30;;;;;;;3.08;1.88;;;5.90;99.90;;;;;;20637267;28;20117;-42
2023/02/04 06:16:31;;;;;;;5.07;1.67;;;6.00;99.90;;;;;;20635244;28;20057;-42
2023/02/04 06:26:32;;;;;;;4.97;2.08;;;5.90;99.90;;;;;;20626247;28;20332;-42
2023/02/04 06:36:33;;;;;;;2.72;1.25;;;5.90;99.90;;;;;;20619764;28;20037;-42
2023/02/04 06:46:34;;;;;;;3.45;1.30;;;6.00;99.90;;;;;;20620065;28;20042;-42
2023/02/04 06:56:35;;;;;;;4.00;1.73;;;6.10;99.90;;;;;;20621001;28;20065;-42
2023/02/04 07:06:36;;;;;;;3.72;1.10;;;6.20;99.90;;;;;;20621995;28;20446;-42
2023/02/04 07:16:37;;;;;;;3.50;1.65;;;6.30;99.90;;;;;;20623093;28;20405;-42
2023/02/04 07:26:38;;;;;;;3.83;2.22;;;6.30;99.90;;;;;;20624965;28;20576;-42
2023/02/04 07:36:39;;;;;;;4.43;1.75;;;6.30;99.90;;;;;;20563707;28;20121;-43
2023/02/04 07:46:40;;;;;;;8.60;3.10;;;6.40;99.90;;;;;;20620581;28;20187;-42
2023/02/04 07:56:41;;;;;;;4.45;1.85;;;6.40;99.90;;;;;;20609888;28;20663;-42
2023/02/04 08:12:37;;;;;;;4.32;2.58;;;6.60;99.90;;;;;;20566213;27;106229;-44
2023/02/04 08:22:38;;;;;;;4.05;1.85;;;6.70;99.90;;;;;;20721233;28;20034;-44
2023/02/04 08:32:40;;;;;;;4.70;2.15;;;6.80;99.90;;;;;;20746944;28;20034;-44
2023/02/04 08:42:41;;;;;;;4.63;1.77;;;7.00;99.90;;;;;;20697701;28;20033;-44
2023/02/04 08:52:42;;;;;;;7.03;2.50;;;7.10;99.90;;;;;;20717901;28;20034;-44
2023/02/04 09:02:43;;;;;;;3.78;1.77;;;7.30;99.90;;;;;;20694603;28;20030;-44
2023/02/04 09:12:44;;;;;;;6.20;1.65;;;7.50;99.90;;;;;;20694389;28;20041;-44
2023/02/04 09:22:46;;;;;;;6.00;2.90;;;7.70;99.90;;;;;;20648799;28;20498;-44
2023/02/04 09:32:47;;;;;;;17.42;4.07;;;7.80;99.90;;;;;;20631849;28;20770;-44
2023/02/04 09:42:51;;;;;;;5.05;2.17;;;8.10;99.90;;;;;;20633149;28;20085;-44
2023/02/04 09:52:55;;;;;;;14.63;4.53;;;8.20;99.90;;;;;;20600101;28;20062;-44
2023/02/04 10:02:58;;;;;;;14.45;3.95;;;8.60;99.90;;;;;;20642446;28;20050;-44
2023/02/04 10:13:02;;;;;;;13.35;3.35;;;8.80;99.90;;;;;;20629901;28;20069;-44
2023/02/04 10:23:04;;;;;;;12.70;2.90;;;8.90;99.90;;;;;;20636785;28;20344;-44
2023/02/04 10:33:25;;;;;;;6.53;2.60;;;9.00;99.90;;;;;;20623099;28;20065;-44
2023/02/04 10:43:26;;;;;;;12.60;3.60;;;9.10;99.90;;;;;;20675552;28;20042;-45
2023/02/04 11:03:47;;;;;;;8.00;2.38;;;9.10;99.90;;;;;;20673343;28;20048;-44
2023/02/04 11:13:48;;;;;;;9.15;3.28;;;9.30;99.90;;;;;;20649798;28;20148;-44
2023/02/04 11:23:50;;;;;;;8.32;2.97;;;9.40;99.90;;;;;;20626251;28;20085;-44
2023/02/04 11:34:17;;;;;;;11.30;3.13;;;9.80;95.00;;;;;;20629707;28;20052;-44
2023/02/04 11:44:18;;;;;;;4.95;1.55;;;9.70;75.20;;;;;;20610291;28;20338;-44
2023/02/04 11:54:20;;;;;;;10.07;2.90;;;9.80;82.10;;;;;;20627897;28;20049;-44
2023/02/04 12:04:23;;;;;;;2.80;1.50;;;10.10;78.60;;;;;;20635483;28;20050;-44
2023/02/04 12:14:33;;;;;;;7.55;2.50;;;10.00;58.70;;;;;;20632529;28;20041;-44
2023/02/04 12:24:34;;;;;;;7.10;2.33;;;10.20;37.60;;;;;;20611730;28;20798;-44
2023/02/04 12:34:35;;;;;;;6.03;1.70;;;10.50;45.40;;;;;;20639795;28;20045;-44
2023/02/04 12:44:36;;;;;;;9.05;1.27;;;11.10;31.60;;;;;;20626342;28;20057;-44
2023/02/04 12:54:37;;;;;;;3.70;1.02;;;10.90;27.00;;;;;;20637025;28;20058;-44
2023/02/04 13:04:39;;;;;;;3.33;1.20;;;10.40;25.40;;;;;;20640884;28;20054;-44
2023/02/04 13:14:41;;;;;;;3.78;1.90;;;10.20;24.20;;;;;;20630642;28;20041;-44
2023/02/04 13:24:42;;;;;;;3.47;1.27;;;10.30;22.40;;;;;;20596747;28;20042;-44
2023/02/04 13:34:43;;;;;;;5.50;1.33;;;10.40;21.10;;;;;;20633268;28;20383;-44
2023/02/04 13:44:44;;;;;;;2.95;0.80;;;10.60;22.50;;;;;;20625309;28;20060;-44
2023/02/04 13:54:45;;;;;;;3.78;0.85;;;10.80;16.40;;;;;;20636088;28;20315;-44
2023/02/04 14:04:46;;;;;;;5.07;1.40;;;10.50;16.20;;;;;;20630724;28;20046;-44
2023/02/04 14:14:47;;;;;;;4.28;1.02;;;10.00;21.10;;;;;;20643697;28;20053;-44
2023/02/04 14:24:49;;;;;;;2.85;1.35;;;9.80;31.70;;;;;;20631741;28;21544;-44
2023/02/04 14:34:50;;;;;;;3.75;1.83;;;9.50;45.20;;;;;;20644449;28;20038;-44
2023/02/04 14:44:51;;;;;;;3.58;1.20;;;9.40;56.50;;;;;;20663787;28;20065;-44
2023/02/04 14:54:52;;;;;;;2.15;0.70;;;9.40;64.40;;;;;;20649532;28;20048;-44
2023/02/04 15:04:53;;;;;;;1.95;0.63;;;9.30;67.70;;;;;;20644486;28;20465;-44
2023/02/04 15:14:54;;;;;;;2.08;0.60;;;9.10;72.60;;;;;;20647900;28;20591;-44
2023/02/04 15:24:55;;;;;;;3.83;1.13;;;8.90;84.90;;;;;;20655358;28;20045;-44
2023/02/04 15:34:56;;;;;;;4.80;1.02;;;9.00;93.00;;;;;;20633899;28;20034;-44
2023/02/04 15:44:57;;;;;;;2.40;0.73;;;8.90;96.30;;;;;;20574642;28;20061;-44
2023/02/04 15:54:58;;;;;;;2.83;0.98;;;8.80;98.30;;;;;;20631511;28;20424;-44
2023/02/04 16:04:59;;;;;;;4.82;2.10;;;8.80;99.90;;;;;;20620939;28;20517;-44
2023/02/04 16:15:00;;;;;;;3.40;1.23;;;8.70;99.90;;;;;;20634400;28;20580;-44
2023/02/04 16:25:02;;;;;;;3.30;1.52;;;8.70;99.90;;;;;;20622607;28;20775;-44
2023/02/04 16:35:04;;;;;;;2.80;1.38;;;8.60;99.90;;;;;;20646642;28;20056;-44
2023/02/04 16:45:05;;;;;;;5.35;1.40;;;8.60;99.90;;;;;;20666474;28;20060;-44
2023/02/04 16:55:07;;;;;;;4.43;1.27;;;8.60;99.90;;;;;;20653117;28;20038;-44
2023/02/04 17:05:08;;;;;;;10.32;2.63;;;8.50;99.90;;;;;;20643760;28;20061;-44
2023/02/04 17:15:09;;;;;;;5.03;2.05;;;8.50;99.90;;;;;;20645416;28;20038;-44
2023/02/04 17:25:10;;;;;;;3.75;2.17;;;8.50;99.90;;;;;;20650043;28;20485;-44
2023/02/04 17:35:12;;;;;;;7.53;3.35;;;8.60;99.90;;;;;;20681186;28;20520;-44
2023/02/04 17:45:13;;;;;;;11.30;3.88;;;8.60;99.90;;;;;;20683752;28;20564;-44
2023/02/04 17:55:27;;;;;;;3.63;1.95;;;8.50;99.90;;;;;;20684316;28;20045;-44
2023/02/04 18:05:29;;;;;;;5.25;2.45;;;8.50;99.90;;;;;;20685843;28;20378;-44
2023/02/04 18:15:31;;;;;;;11.60;4.95;;;8.50;99.90;;;;;;20670483;28;20483;-44
2023/02/04 18:25:32;;;;;;;8.02;5.13;;;8.50;99.90;;;;;;20680375;28;20046;-44
2023/02/04 18:35:41;;;;;;;8.40;3.25;;;8.50;99.90;;;;;;20686247;28;20041;-44
2023/02/04 18:45:42;;;;;;;10.52;3.45;;;8.40;99.90;;;;;;20654040;28;20430;-44
2023/02/04 18:55:49;;;;;;;10.98;3.30;;;8.50;99.90;;;;;;20680864;28;20037;-44
2023/02/04 19:05:51;;;;;;;5.03;2.53;;;8.50;99.90;;;;;;20675662;28;20058;-42
2023/02/04 19:16:02;;;;;;;6.68;3.20;;;8.40;99.90;;;;;;20679326;28;20490;-42
2023/02/04 19:26:30;;;;;;;8.15;3.65;;;8.40;99.90;;;;;;20670121;28;20774;-42
2023/02/04 19:36:36;;;;;;;9.30;3.80;;;8.40;99.90;;;;;;20662253;28;20467;-42
2023/02/04 19:46:37;;;;;;;10.98;5.38;;;8.40;99.90;;;;;;20665334;28;20635;-42
2023/02/04 19:56:39;;;;;;;12.13;5.05;;;8.40;99.90;;;;;;20650730;28;20045;-42
2023/02/04 20:06:42;;;;;;;8.48;2.85;;;8.30;99.90;;;;;;20631531;28;20046;-42
2023/02/04 20:16:59;;;;;;;10.23;4.68;;;8.30;99.90;;;;;;20634248;28;20621;-42
2023/02/04 20:27:11;;;;;;;9.35;3.47;;;8.40;99.90;;;;;;20649738;28;22060;-42
2023/02/04 20:37:25;;;;;;;9.32;4.25;;;8.50;99.90;;;;;;20626037;28;20490;-42
2023/02/04 20:47:33;;;;;;;11.80;4.38;;;8.50;99.90;;;;;;20622160;28;20057;-42
2023/02/04 20:57:34;;;;;;;10.27;4.25;;;8.60;99.90;;;;;;20623818;28;20053;-42
2023/02/04 21:07:35;;;;;;;10.43;4.60;;;8.60;99.90;;;;;;20621620;28;20420;-42
2023/02/04 21:17:36;;;;;;;16.13;5.68;;;8.60;99.90;;;;;;20637411;28;20046;-42
2023/02/04 21:27:37;;;;;;;11.25;4.50;;;8.60;99.90;;;;;;20641732;28;20057;-42
2023/02/04 21:37:38;;;;;;;16.20;7.95;;;8.60;99.90;;;;;;20634813;28;20401;-41
2023/02/04 21:47:39;;;;;;;11.82;6.05;;;8.50;99.90;;;;;;20635484;28;20048;-41
2023/02/04 21:57:40;;;;;;;13.25;5.25;;;8.50;99.90;;;;;;20640633;28;20497;-42
2023/02/04 22:07:41;;;;;;;12.00;6.80;;;8.50;99.90;;;;;;20642171;28;20046;-42
2023/02/04 22:17:43;;;;;;;17.50;7.35;;;8.50;99.90;;;;;;20648032;28;20246;-41
2023/02/04 22:27:44;;;;;;;13.63;6.78;;;8.50;99.90;;;;;;20644542;28;20414;-42
2023/02/04 22:37:45;;;;;;;11.85;7.90;;;8.50;99.90;;;;;;20650417;28;20053;-41
2023/02/04 22:47:46;;;;;;;14.43;7.45;;;8.50;99.90;;;;;;20647471;28;20137;-41
2023/02/04 22:57:48;;;;;;;14.15;7.72;;;8.50;99.90;;;;;;20640598;28;20043;-42
2023/02/04 23:07:49;;;;;;;34.85;8.18;;;8.40;99.90;;;;;;20678348;28;20065;-42
2023/02/04 23:17:51;;;;;;;11.77;6.65;;;8.50;99.90;;;;;;20680328;28;20197;-42
2023/02/04 23:27:52;;;;;;;7.65;4.75;;;8.40;99.90;;;;;;20691724;28;20049;-42
2023/02/04 23:37:53;;;;;;;8.45;5.80;;;8.40;99.90;;;;;;20689346;28;20046;-42
2023/02/04 23:47:54;;;;;;;8.88;5.50;;;8.40;99.90;;;;;;20685491;28;20045;-42
2023/02/04 23:57:55;;;;;;;10.40;5.70;;;8.30;99.90;;;;;;20668968;28;20136;-42
